Time;durP1;ratioP1;P1;durP2;ratioP2;P2;SDS_P1;SDS_P2;PMS_P1;PMS_P2;Temp;Humidity;BMP_temperature;BMP_pressure;BME280_temperature;BME280_humidity;BME280_pressure;Samples;Min_cycle;Max_cycle;Signal;HPM_P1;HPM_P2
2024/02/20 00:00:56;;;;;;;0.77;0.77;;;;;;;5.20;100.00;93861.38;1857432;28;20039;-84
2024/02/20 00:01:57;;;;;;;1.38;0.75;;;;;;;5.22;100.00;93864.44;1833505;28;20037;-82
2024/02/20 00:02:58;;;;;;;0.95;0.75;;;;;;;5.37;100.00;93864.56;1827505;28;23215;-82
2024/02/20 00:04:00;;;;;;;0.98;0.80;;;;;;;5.29;100.00;93863.72;1715803;28;20926;-80
2024/02/20 00:05:01;;;;;;;0.95;0.90;;;;;;;5.29;100.00;93867.13;1709028;28;20067;-82
2024/02/20 00:06:03;;;;;;;0.60;0.60;;;;;;;5.28;100.00;93862.97;1790598;28;20119;-82
2024/02/20 00:07:04;;;;;;;0.73;0.73;;;;;;;5.27;100.00;93858.81;1824262;28;20028;-83
2024/02/20 00:08:05;;;;;;;2.47;0.82;;;;;;;5.31;100.00;93858.81;1661843;28;23238;-81
2024/02/20 00:09:07;;;;;;;1.25;0.93;;;;;;;5.24;100.00;93866.72;1670799;28;22785;-84
2024/02/20 00:10:10;;;;;;;0.80;0.80;;;;;;;5.20;100.00;93866.66;1653442;28;22083;-82
2024/02/20 00:11:11;;;;;;;0.80;0.80;;;;;;;5.30;100.00;93865.25;1682568;28;21100;-81
2024/02/20 00:12:12;;;;;;;1.35;0.75;;;;;;;5.23;100.00;93860.66;1666572;28;20033;-81
2024/02/20 00:13:13;;;;;;;2.75;0.88;;;;;;;5.19;100.00;93865.16;1617515;28;20039;-80
2024/02/20 00:14:14;;;;;;;1.42;0.98;;;;;;;5.34;100.00;93857.34;1627330;28;21915;-82
2024/02/20 00:15:15;;;;;;;0.70;0.70;;;;;;;5.38;100.00;93863.44;1663220;28;22558;-81
2024/02/20 00:16:17;;;;;;;0.75;0.75;;;;;;;5.42;100.00;93865.00;1727226;28;22753;-81
2024/02/20 00:17:17;;;;;;;1.55;0.80;;;;;;;5.37;100.00;93862.69;1713746;28;21906;-81
2024/02/20 00:18:20;;;;;;;1.42;0.80;;;;;;;5.35;100.00;93869.44;1812067;28;20159;-82
2024/02/20 00:19:21;;;;;;;1.33;0.93;;;;;;;5.21;100.00;93880.69;2050971;28;25432;-82
2024/02/20 00:20:21;;;;;;;0.70;0.70;;;;;;;5.18;100.00;93871.56;2062111;28;20036;-82
2024/02/20 00:21:24;;;;;;;1.40;0.70;;;;;;;5.31;100.00;93872.06;2035019;28;22432;-83
2024/02/20 00:22:25;;;;;;;1.45;0.80;;;;;;;5.33;100.00;93864.53;1987970;28;23076;-82
2024/02/20 00:23:26;;;;;;;0.68;0.60;;;;;;;5.37;100.00;93875.94;1997832;28;20136;-83
2024/02/20 00:24:27;;;;;;;1.73;0.70;;;;;;;5.42;100.00;93870.28;2010455;28;20029;-82
2024/02/20 00:25:28;;;;;;;0.77;0.50;;;;;;;5.40;100.00;93869.13;2007499;28;20068;-83
2024/02/20 00:26:29;;;;;;;0.70;0.70;;;;;;;5.49;100.00;93873.03;2031160;28;20450;-82
2024/02/20 00:27:31;;;;;;;0.68;0.60;;;;;;;5.47;100.00;93871.84;2036661;28;20506;-82
2024/02/20 00:28:35;;;;;;;0.70;0.70;;;;;;;5.53;100.00;93870.38;2061958;28;20161;-83
2024/02/20 00:29:36;;;;;;;1.10;0.60;;;;;;;5.51;100.00;93872.66;2072860;28;20071;-83
2024/02/20 00:30:37;;;;;;;0.75;0.65;;;;;;;5.55;100.00;93876.88;2081667;28;20028;-83
2024/02/20 00:31:38;;;;;;;0.73;0.50;;;;;;;5.42;100.00;93867.66;2080704;28;20035;-82
2024/02/20 00:32:39;;;;;;;0.93;0.60;;;;;;;5.40;100.00;93867.25;2083137;28;20520;-82
2024/02/20 00:33:40;;;;;;;0.82;0.70;;;;;;;5.31;100.00;93858.81;2100423;28;20700;-83
2024/02/20 00:34:41;;;;;;;1.30;0.70;;;;;;;5.35;100.00;93880.81;2110458;28;20027;-83
2024/02/20 00:35:42;;;;;;;0.45;0.45;;;;;;;5.38;100.00;93872.16;2053682;28;20059;-84
2024/02/20 00:36:43;;;;;;;0.70;0.60;;;;;;;5.27;100.00;93880.00;2007756;28;20032;-82
2024/02/20 00:37:44;;;;;;;0.50;0.50;;;;;;;5.32;100.00;93878.91;2026059;28;20028;-83
2024/02/20 00:38:45;;;;;;;0.85;0.60;;;;;;;5.35;100.00;93872.09;2020707;28;20031;-84
2024/02/20 00:39:46;;;;;;;0.90;0.50;;;;;;;5.46;100.00;93871.09;2030461;28;20036;-82
2024/02/20 00:40:47;;;;;;;0.43;0.40;;;;;;;5.41;100.00;93868.03;2025822;28;20043;-82
2024/02/20 00:41:48;;;;;;;0.60;0.50;;;;;;;5.31;100.00;93874.72;2045375;28;20032;-82
2024/02/20 00:42:49;;;;;;;0.95;0.40;;;;;;;5.33;100.00;93861.88;2051770;28;20535;-82
2024/02/20 00:43:50;;;;;;;0.40;0.40;;;;;;;5.20;100.00;93866.66;2050084;28;20163;-83
2024/02/20 00:44:51;;;;;;;0.50;0.38;;;;;;;5.30;100.00;93858.06;2060020;28;20033;-84
2024/02/20 00:45:52;;;;;;;0.40;0.40;;;;;;;5.29;100.00;93861.84;2064585;28;20070;-83
2024/02/20 00:46:53;;;;;;;0.30;0.30;;;;;;;5.27;100.00;93863.34;2090991;28;20027;-82
2024/02/20 00:47:54;;;;;;;0.80;0.40;;;;;;;5.32;100.00;93864.91;2098601;28;20485;-83
2024/02/20 00:48:55;;;;;;;0.40;0.40;;;;;;;5.21;100.00;93865.53;2081563;28;20390;-84
2024/02/20 00:49:56;;;;;;;0.30;0.30;;;;;;;5.22;100.00;93861.00;2092233;28;20414;-83
2024/02/20 00:50:57;;;;;;;0.40;0.40;;;;;;;5.19;100.00;93859.09;2123084;27;20027;-85
2024/02/20 00:51:58;;;;;;;0.85;0.43;;;;;;;5.37;100.00;93864.56;2106307;28;20032;-82
2024/02/20 00:52:59;;;;;;;0.35;0.35;;;;;;;5.37;100.00;93852.06;2106253;28;20412;-83
2024/02/20 00:54:00;;;;;;;0.40;0.40;;;;;;;5.28;100.00;93855.00;2100341;28;20059;-83
2024/02/20 00:55:01;;;;;;;0.65;0.40;;;;;;;5.21;100.00;93859.47;2089742;28;20021;-82
2024/02/20 00:56:03;;;;;;;0.40;0.40;;;;;;;5.24;100.00;93859.50;2097869;28;20116;-83
2024/02/20 00:57:04;;;;;;;0.28;0.28;;;;;;;5.28;100.00;93856.91;2106225;28;20102;-83
2024/02/20 00:58:05;;;;;;;0.50;0.50;;;;;;;5.24;100.00;93854.22;2106316;28;20079;-83
2024/02/20 00:59:07;;;;;;;0.73;0.40;;;;;;;5.18;100.00;93857.53;2106242;28;20437;-83
2024/02/20 01:00:13;;;;;;;0.60;0.40;;;;;;;5.22;100.00;93858.34;2090003;28;20075;-83
2024/02/20 01:01:14;;;;;;;0.40;0.40;;;;;;;5.23;100.00;93862.53;2090644;28;20382;-82
2024/02/20 01:02:15;;;;;;;0.50;0.40;;;;;;;5.32;100.00;93856.94;2102864;28;20580;-82
2024/02/20 01:03:16;;;;;;;0.50;0.45;;;;;;;5.24;100.00;93866.72;2100896;28;20021;-83
2024/02/20 01:04:17;;;;;;;0.40;0.40;;;;;;;5.30;100.00;93866.00;2016411;28;20024;-83
2024/02/20 01:05:18;;;;;;;0.30;0.30;;;;;;;5.24;100.00;93866.72;1996835;28;21287;-83
2024/02/20 01:06:19;;;;;;;0.73;0.40;;;;;;;5.28;100.00;93870.91;2007720;28;20426;-82
2024/02/20 01:07:20;;;;;;;0.82;0.50;;;;;;;5.34;100.00;93865.28;2003995;28;20512;-82
2024/02/20 01:08:21;;;;;;;0.57;0.40;;;;;;;5.35;100.00;93864.91;2018504;28;20029;-83
2024/02/20 01:09:22;;;;;;;0.38;0.38;;;;;;;5.42;100.00;93862.34;2021541;28;20024;-83
2024/02/20 01:10:23;;;;;;;2.00;0.45;;;;;;;5.41;100.00;93871.44;2017408;28;20033;-82
2024/02/20 01:11:24;;;;;;;0.30;0.30;;;;;;;5.34;100.00;93871.34;2020032;28;20029;-81
2024/02/20 01:12:25;;;;;;;0.30;0.30;;;;;;;5.59;100.00;93868.94;2046210;28;20120;-82
2024/02/20 01:13:26;;;;;;;0.55;0.50;;;;;;;5.44;100.00;93868.03;2050493;28;20168;-84
2024/02/20 01:14:28;;;;;;;0.40;0.40;;;;;;;5.46;100.00;93865.03;2061727;28;20032;-82
2024/02/20 01:15:29;;;;;;;0.60;0.50;;;;;;;5.43;100.00;93869.16;2063902;28;20670;-83
2024/02/20 01:16:30;;;;;;;0.40;0.40;;;;;;;5.63;100.00;93869.00;2077997;28;20032;-83
2024/02/20 01:17:31;;;;;;;0.30;0.30;;;;;;;5.60;100.00;93869.72;2097820;28;20028;-84
2024/02/20 01:18:34;;;;;;;0.40;0.40;;;;;;;5.72;100.00;93867.56;2092653;28;20025;-84
2024/02/20 01:19:36;;;;;;;0.30;0.30;;;;;;;5.76;100.00;93865.69;2097785;28;20031;-84
2024/02/20 01:20:36;;;;;;;0.65;0.50;;;;;;;5.82;100.00;93872.19;2097144;28;20073;-82
2024/02/20 01:21:37;;;;;;;0.95;0.30;;;;;;;5.67;100.00;93867.88;2097673;28;20027;-82
2024/02/20 01:22:41;;;;;;;0.30;0.30;;;;;;;5.72;100.00;93866.78;2106090;28;20086;-82
2024/02/20 01:23:42;;;;;;;0.32;0.32;;;;;;;5.98;100.00;93865.91;2106365;28;20020;-83
2024/02/20 01:24:43;;;;;;;0.25;0.25;;;;;;;5.66;100.00;93870.88;2106069;28;20020;-82
2024/02/20 01:25:44;;;;;;;0.98;0.40;;;;;;;5.71;100.00;93868.69;2114235;28;20353;-85
2024/02/20 01:26:45;;;;;;;0.40;0.40;;;;;;;5.66;100.00;93868.22;2114533;28;20027;-83
2024/02/20 01:27:46;;;;;;;0.30;0.30;;;;;;;5.69;100.00;93870.94;2106063;28;20115;-82
2024/02/20 01:28:47;;;;;;;0.25;0.25;;;;;;;5.80;100.00;93868.38;2114667;27;20024;-82
2024/02/20 01:29:49;;;;;;;0.52;0.30;;;;;;;5.76;100.00;93862.28;2105911;28;20074;-83
2024/02/20 01:30:51;;;;;;;0.40;0.40;;;;;;;5.80;100.00;93863.84;2106277;28;20123;-83
2024/02/20 01:31:53;;;;;;;0.82;0.50;;;;;;;5.90;100.00;93865.03;2114689;28;20019;-82
2024/02/20 01:32:57;;;;;;;0.30;0.30;;;;;;;5.78;100.00;93868.72;2114568;28;20108;-83
2024/02/20 01:33:58;;;;;;;0.40;0.40;;;;;;;5.57;100.00;93871.19;2110679;28;20177;-84
2024/02/20 01:34:59;;;;;;;0.40;0.40;;;;;;;5.59;100.00;93868.94;2103405;28;20042;-83
2024/02/20 01:36:00;;;;;;;0.43;0.43;;;;;;;5.61;100.00;93869.34;2100376;28;20043;-83
2024/02/20 01:37:01;;;;;;;0.77;0.50;;;;;;;5.78;100.00;93865.31;2099711;28;20078;-82
2024/02/20 01:38:02;;;;;;;0.88;0.50;;;;;;;5.75;100.00;93871.34;2089685;28;20485;-81
2024/02/20 01:39:03;;;;;;;0.45;0.45;;;;;;;5.62;100.00;93876.19;2095542;28;20021;-83
2024/02/20 01:40:04;;;;;;;1.42;0.47;;;;;;;5.70;100.00;93872.44;2098080;28;20035;-82
2024/02/20 01:41:06;;;;;;;0.50;0.50;;;;;;;5.96;100.00;93874.22;2094558;28;20029;-82
2024/02/20 01:42:07;;;;;;;0.40;0.40;;;;;;;5.71;100.00;93870.56;2084192;28;20021;-82
2024/02/20 01:43:08;;;;;;;0.85;0.73;;;;;;;5.98;100.00;93871.22;2092462;28;20093;-83
2024/02/20 01:44:10;;;;;;;0.65;0.50;;;;;;;5.97;100.00;93867.78;2087471;28;20025;-81
2024/02/20 01:45:11;;;;;;;1.25;0.70;;;;;;;5.92;100.00;93868.09;2082892;28;20033;-82
2024/02/20 01:46:18;;;;;;;0.75;0.47;;;;;;;5.78;100.00;93871.38;2095159;28;20028;-83
2024/02/20 01:47:19;;;;;;;2.25;0.60;;;;;;;5.93;100.00;93872.31;2098455;28;20463;-83
2024/02/20 01:48:20;;;;;;;1.08;0.80;;;;;;;5.85;100.00;93872.59;2089646;28;20048;-84
2024/02/20 01:49:21;;;;;;;0.88;0.40;;;;;;;5.87;100.00;93871.06;2089724;28;20083;-81
2024/02/20 01:50:23;;;;;;;0.50;0.50;;;;;;;5.91;100.00;93869.22;2105749;28;20421;-82
2024/02/20 01:51:24;;;;;;;1.60;0.43;;;;;;;5.92;100.00;93873.41;2097435;28;20063;-83
2024/02/20 01:52:25;;;;;;;1.50;0.60;;;;;;;5.85;100.00;93867.28;2081006;28;20481;-83
2024/02/20 01:53:29;;;;;;;1.05;0.60;;;;;;;5.99;100.00;93868.19;2089148;28;20512;-84
2024/02/20 01:54:31;;;;;;;0.90;0.60;;;;;;;5.88;100.00;93871.84;2103593;28;20032;-83
2024/02/20 01:55:33;;;;;;;0.50;0.50;;;;;;;5.94;100.00;93863.22;2105921;28;20016;-82
2024/02/20 01:56:35;;;;;;;0.60;0.60;;;;;;;5.94;100.00;93867.75;2114397;27;20675;-83
2024/02/20 01:57:36;;;;;;;0.65;0.65;;;;;;;6.09;100.00;93869.38;2102281;28;20028;-82
2024/02/20 01:58:37;;;;;;;1.02;0.60;;;;;;;6.05;100.00;93872.00;2101195;28;20020;-82
2024/02/20 01:59:38;;;;;;;0.77;0.63;;;;;;;5.94;100.00;93873.81;2097627;28;20024;-83
2024/02/20 02:00:39;;;;;;;0.93;0.70;;;;;;;5.95;100.00;93874.59;2105712;28;20040;-84
2024/02/20 02:01:40;;;;;;;1.40;0.70;;;;;;;5.91;100.00;93869.22;2097216;28;20122;-82
2024/02/20 02:02:41;;;;;;;0.75;0.65;;;;;;;6.01;100.00;93868.59;2097366;28;20020;-83
2024/02/20 02:03:42;;;;;;;0.77;0.63;;;;;;;6.01;100.00;93863.28;2104745;28;20826;-83
2024/02/20 02:04:43;;;;;;;2.00;0.90;;;;;;;6.01;100.00;93868.59;2109192;28;20024;-83
2024/02/20 02:05:44;;;;;;;1.13;1.02;;;;;;;5.84;100.00;93874.47;2104379;28;20085;-83
2024/02/20 02:06:45;;;;;;;1.13;0.80;;;;;;;5.73;100.00;93882.34;2095837;28;20020;-82
2024/02/20 02:07:49;;;;;;;1.02;0.80;;;;;;;5.80;100.00;93874.44;2092830;28;20035;-82
2024/02/20 02:08:50;;;;;;;2.00;0.85;;;;;;;5.74;100.00;93865.28;2089555;28;20036;-83
2024/02/20 02:09:51;;;;;;;2.28;0.90;;;;;;;5.89;100.00;93871.50;2089187;28;20036;-83
2024/02/20 02:10:52;;;;;;;2.13;1.00;;;;;;;5.71;100.00;93871.34;2097122;28;20066;-84
2024/02/20 02:11:53;;;;;;;1.38;1.23;;;;;;;5.68;100.00;93877.38;2087124;28;20028;-83
2024/02/20 02:12:54;;;;;;;2.33;2.10;;;;;;;5.63;100.00;93874.28;2089375;28;20032;-83
2024/02/20 02:13:55;;;;;;;3.40;1.85;;;;;;;5.84;100.00;93871.03;2092596;28;20470;-83
2024/02/20 02:14:56;;;;;;;4.47;2.47;;;;;;;5.91;100.00;93877.19;2096286;28;20056;-83
2024/02/20 02:15:57;;;;;;;4.55;2.35;;;;;;;5.78;100.00;93878.56;2091512;28;20032;-83
2024/02/20 02:16:58;;;;;;;5.38;2.75;;;;;;;5.40;100.00;93871.78;2086451;28;20025;-83
2024/02/20 02:17:59;;;;;;;6.60;2.72;;;;;;;5.72;100.00;93874.75;2091342;28;20029;-83
2024/02/20 02:19:00;;;;;;;4.40;2.60;;;;;;;5.75;100.00;93876.66;2107041;28;20024;-84
2024/02/20 02:20:01;;;;;;;6.00;2.78;;;;;;;5.76;100.00;93881.59;2105820;28;20059;-83
2024/02/20 02:21:02;;;;;;;3.58;2.60;;;;;;;5.86;100.00;93884.72;2089104;28;20053;-83
2024/02/20 02:22:04;;;;;;;4.55;2.63;;;;;;;5.72;100.00;93878.16;2097398;28;20020;-83
2024/02/20 02:23:04;;;;;;;5.75;3.08;;;;;;;5.65;100.00;93886.03;2105766;28;20043;-83
2024/02/20 02:24:07;;;;;;;6.60;3.20;;;;;;;5.70;100.00;93879.63;2097351;28;20056;-83
2024/02/20 02:26:40;;;;;;;;;;;;;;;4.22;100.00;93887.00;2148430;27;20121;-82
2024/02/20 02:27:41;;;;;;;7.28;3.20;;;;;;;4.28;100.00;93887.44;2138559;27;20288;-81
2024/02/20 02:28:47;;;;;;;8.20;3.08;;;;;;;4.34;100.00;93886.00;2129986;27;20034;-81
2024/02/20 02:29:48;;;;;;;7.30;3.60;;;;;;;4.42;100.00;93889.53;2122072;27;20031;-79
2024/02/20 02:30:49;;;;;;;5.15;3.08;;;;;;;4.42;100.00;93892.19;2129789;27;20022;-79
2024/02/20 02:31:50;;;;;;;5.43;3.25;;;;;;;4.39;100.00;93891.03;2121399;27;20011;-82
2024/02/20 02:32:51;;;;;;;7.18;3.28;;;;;;;4.49;100.00;93895.69;2129637;27;20525;-83
2024/02/20 02:33:52;;;;;;;5.32;3.00;;;;;;;4.44;100.00;93888.06;2114911;28;20072;-83
2024/02/20 02:34:53;;;;;;;3.38;3.03;;;;;;;4.38;100.00;93908.00;2110527;28;20062;-83
2024/02/20 02:35:54;;;;;;;7.35;4.43;;;;;;;4.35;100.00;93900.78;2121263;28;20027;-82
2024/02/20 02:36:57;;;;;;;5.88;3.00;;;;;;;4.52;100.00;93897.63;2112951;27;20409;-84
2024/02/20 02:38:00;;;;;;;6.13;3.03;;;;;;;4.57;100.00;93895.81;2121469;27;20038;-83
2024/02/20 02:39:01;;;;;;;4.82;3.00;;;;;;;4.66;100.00;93909.53;2121545;27;20019;-82
2024/02/20 02:40:05;;;;;;;6.70;2.88;;;;;;;4.58;100.00;93910.56;2112744;28;20024;-83
2024/02/20 02:41:06;;;;;;;5.50;3.00;;;;;;;4.55;100.00;93896.16;2121638;27;20027;-83
2024/02/20 02:42:07;;;;;;;5.93;3.03;;;;;;;4.53;100.00;93907.09;2112651;28;20020;-82
2024/02/20 02:43:08;;;;;;;7.18;3.30;;;;;;;4.57;100.00;93906.41;2109930;28;20024;-83
2024/02/20 02:44:09;;;;;;;5.22;3.13;;;;;;;4.40;100.00;93903.13;2112879;27;20122;-84
2024/02/20 02:45:10;;;;;;;5.95;3.08;;;;;;;4.52;100.00;93904.78;2121288;28;20943;-83
2024/02/20 02:46:12;;;;;;;6.95;3.35;;;;;;;4.41;100.00;93915.25;2120993;28;20024;-80
2024/02/20 02:47:13;;;;;;;6.25;3.40;;;;;;;4.38;100.00;93910.66;2120588;28;20034;-81
2024/02/20 02:48:14;;;;;;;3.50;2.83;;;;;;;4.49;100.00;93911.56;2121242;27;20031;-81
2024/02/20 02:49:15;;;;;;;5.28;3.40;;;;;;;4.65;100.00;93911.41;2121150;28;20023;-81
2024/02/20 02:50:15;;;;;;;8.07;3.38;;;;;;;4.47;100.00;93905.88;2104387;28;20050;-81
2024/02/20 02:51:16;;;;;;;5.30;3.00;;;;;;;4.33;100.00;93910.97;2104533;28;20024;-81
2024/02/20 02:52:17;;;;;;;6.00;3.20;;;;;;;4.34;100.00;93909.06;2112864;27;20457;-82
2024/02/20 02:53:21;;;;;;;8.60;3.50;;;;;;;4.52;100.00;93910.09;2112741;28;20039;-83
2024/02/20 02:54:25;;;;;;;7.20;3.30;;;;;;;4.63;100.00;93911.00;2113201;28;20023;-82
2024/02/20 02:55:26;;;;;;;7.10;3.22;;;;;;;4.70;100.00;93908.47;2105069;28;20027;-83
2024/02/20 02:56:28;;;;;;;4.57;2.90;;;;;;;4.62;100.00;93909.50;2112993;27;20028;-83
2024/02/20 02:57:29;;;;;;;5.55;2.97;;;;;;;4.45;100.00;93904.72;2121269;28;20126;-83
2024/02/20 02:58:30;;;;;;;6.43;3.10;;;;;;;4.43;100.00;93907.69;2112818;27;20033;-82
2024/02/20 02:59:31;;;;;;;4.22;2.50;;;;;;;4.61;100.00;93907.97;2121238;27;20027;-82
2024/02/20 03:00:33;;;;;;;4.07;2.97;;;;;;;4.58;100.00;93913.97;2112570;28;20102;-83
2024/02/20 03:01:34;;;;;;;5.80;2.88;;;;;;;4.38;100.00;93917.84;2113017;27;20024;-82
2024/02/20 03:02:35;;;;;;;7.28;3.17;;;;;;;4.31;100.00;93907.91;2121100;28;20511;-83
2024/02/20 03:03:36;;;;;;;7.25;2.90;;;;;;;4.39;100.00;93911.41;2103920;28;20024;-83
2024/02/20 03:04:38;;;;;;;3.13;2.70;;;;;;;4.40;100.00;93911.06;2108070;28;20031;-82
2024/02/20 03:05:39;;;;;;;4.03;2.58;;;;;;;4.32;100.00;93912.09;2103848;28;20024;-80
2024/02/20 03:06:40;;;;;;;5.07;3.00;;;;;;;4.46;100.00;93917.56;2104180;28;20024;-80
2024/02/20 03:07:41;;;;;;;6.65;2.97;;;;;;;4.50;100.00;93918.41;2112506;28;20601;-80
2024/02/20 03:08:45;;;;;;;8.88;3.10;;;;;;;4.68;100.00;93926.59;2104324;28;20023;-80
2024/02/20 03:09:46;;;;;;;3.90;2.95;;;;;;;4.36;100.00;93922.72;2105095;28;20016;-80
2024/02/20 03:10:48;;;;;;;5.25;3.00;;;;;;;4.24;100.00;93927.09;2112490;28;20035;-81
2024/02/20 03:11:49;;;;;;;6.45;2.95;;;;;;;4.38;100.00;93920.47;2112743;28;20088;-79
2024/02/20 03:12:52;;;;;;;7.38;3.53;;;;;;;4.33;100.00;93923.44;2112415;28;20049;-81
2024/02/20 03:13:53;;;;;;;6.65;3.53;;;;;;;4.32;100.00;93925.31;2122561;27;20071;-81
2024/02/20 03:14:54;;;;;;;4.72;2.90;;;;;;;4.40;100.00;93934.13;2120916;28;20400;-82
2024/02/20 03:15:55;;;;;;;4.65;3.33;;;;;;;4.40;100.00;93934.13;2112500;28;20449;-81
2024/02/20 03:16:56;;;;;;;5.72;3.15;;;;;;;4.47;100.00;93927.03;2120944;27;20027;-81
2024/02/20 03:17:57;;;;;;;7.53;3.08;;;;;;;4.47;100.00;93934.22;2120980;27;20058;-80
2024/02/20 03:18:58;;;;;;;4.95;2.40;;;;;;;4.58;100.00;93934.38;2120905;28;20050;-80
2024/02/20 03:19:59;;;;;;;5.55;2.70;;;;;;;4.59;100.00;93933.25;2104097;28;20126;-80
2024/02/20 03:21:00;;;;;;;4.38;3.03;;;;;;;4.55;100.00;93936.63;2104127;28;20032;-81
2024/02/20 03:22:02;;;;;;;6.28;3.20;;;;;;;4.42;100.00;93937.94;2112403;28;20746;-81
2024/02/20 03:23:03;;;;;;;8.00;3.13;;;;;;;4.49;100.00;93932.00;2112757;28;20498;-80
2024/02/20 03:24:05;;;;;;;4.38;2.90;;;;;;;4.36;100.00;93938.63;2104191;28;20042;-80
2024/02/20 03:25:07;;;;;;;4.15;3.17;;;;;;;4.29;100.00;93933.97;2104228;28;20026;-80
2024/02/20 03:26:08;;;;;;;8.60;3.33;;;;;;;4.32;100.00;93924.56;2120909;27;20118;-80
2024/02/20 03:27:10;;;;;;;6.57;3.05;;;;;;;4.46;100.00;93938.00;2112527;28;20114;-81
2024/02/20 03:28:13;;;;;;;8.15;3.50;;;;;;;4.40;100.00;93934.91;2104571;28;20513;-80
2024/02/20 03:29:14;;;;;;;6.30;3.10;;;;;;;4.49;100.00;93939.94;2104651;28;20024;-83
2024/02/20 03:30:15;;;;;;;4.28;2.90;;;;;;;4.47;100.00;93934.22;2104270;28;20029;-82
2024/02/20 03:31:16;;;;;;;9.40;2.75;;;;;;;4.34;100.00;93944.25;2103967;28;20183;-80
2024/02/20 03:32:17;;;;;;;4.97;3.28;;;;;;;4.36;100.00;93938.63;2111439;28;20035;-82
2024/02/20 03:33:19;;;;;;;7.68;3.30;;;;;;;4.27;100.00;93944.91;2096753;28;20032;-82
2024/02/20 03:34:20;;;;;;;6.68;3.35;;;;;;;4.25;100.00;93943.72;2103561;28;20028;-83
2024/02/20 03:35:22;;;;;;;9.38;3.38;;;;;;;4.34;100.00;93944.25;2104054;28;20028;-83
2024/02/20 03:36:22;;;;;;;8.05;2.75;;;;;;;4.33;100.00;93948.00;2102937;28;20029;-80
2024/02/20 03:37:25;;;;;;;6.60;3.08;;;;;;;4.29;100.00;93950.59;2104042;28;20431;-80
2024/02/20 03:38:26;;;;;;;5.97;3.15;;;;;;;4.27;100.00;93944.91;2106965;27;20377;-80
2024/02/20 03:39:27;;;;;;;4.03;2.65;;;;;;;4.37;100.00;93951.47;2131130;27;20063;-80
2024/02/20 03:40:28;;;;;;;5.70;3.00;;;;;;;4.38;100.00;93942.41;2115047;28;20023;-80
2024/02/20 03:41:29;;;;;;;6.82;2.80;;;;;;;4.31;100.00;93944.97;2098362;28;20017;-81
2024/02/20 03:42:30;;;;;;;6.47;3.20;;;;;;;4.23;100.00;93951.25;2092750;28;20025;-81
2024/02/20 03:43:32;;;;;;;6.78;3.25;;;;;;;4.31;100.00;93954.78;2105362;28;20400;-81
2024/02/20 03:44:37;;;;;;;5.93;2.72;;;;;;;4.45;100.00;93958.41;2106895;28;20078;-81
2024/02/20 03:45:38;;;;;;;6.85;2.75;;;;;;;4.50;100.00;93954.69;2120471;27;21010;-81
2024/02/20 03:46:39;;;;;;;7.28;3.00;;;;;;;4.30;100.00;93948.72;2132631;27;20015;-83
2024/02/20 03:47:40;;;;;;;7.47;2.35;;;;;;;4.36;100.00;93960.53;2114949;28;20024;-81
2024/02/20 03:48:41;;;;;;;5.15;2.47;;;;;;;4.31;100.00;93952.91;2098395;28;20036;-80
2024/02/20 03:49:43;;;;;;;7.72;2.67;;;;;;;4.38;100.00;93958.28;2106937;28;20020;-80
2024/02/20 03:50:44;;;;;;;6.22;2.42;;;;;;;4.35;100.00;93950.31;2106949;28;20077;-80
2024/02/20 03:51:46;;;;;;;5.10;2.85;;;;;;;4.40;100.00;93961.38;2115172;28;20061;-80
2024/02/20 03:52:47;;;;;;;7.65;2.53;;;;;;;4.18;100.00;93960.25;2106868;28;20127;-79
2024/02/20 03:53:48;;;;;;;6.07;2.70;;;;;;;4.34;100.00;93964.66;2098211;28;20028;-81
2024/02/20 03:54:49;;;;;;;9.00;2.80;;;;;;;4.45;100.00;93961.06;2106670;28;20380;-80
2024/02/20 03:55:50;;;;;;;6.05;3.08;;;;;;;4.32;100.00;93957.06;2114953;28;20023;-82
2024/02/20 03:56:51;;;;;;;5.68;2.70;;;;;;;4.26;100.00;93953.97;2115283;28;20088;-83
2024/02/20 03:57:52;;;;;;;6.63;2.72;;;;;;;4.35;100.00;93959.03;2106524;28;20077;-81
2024/02/20 03:58:52;;;;;;;6.15;2.25;;;;;;;4.28;100.00;93964.94;2098268;28;20549;-81
2024/02/20 03:59:55;;;;;;;8.80;2.40;;;;;;;4.12;100.00;93958.25;2099896;28;20021;-81
2024/02/20 04:00:56;;;;;;;4.93;2.38;;;;;;;3.96;100.00;93958.38;2114871;28;20031;-82
2024/02/20 04:01:57;;;;;;;8.25;2.33;;;;;;;4.00;100.00;93959.97;2106423;28;20020;-82
2024/02/20 04:02:58;;;;;;;6.72;2.45;;;;;;;4.03;100.00;93964.53;2106503;28;20043;-82
2024/02/20 04:04:00;;;;;;;8.50;2.50;;;;;;;3.95;100.00;93951.56;2100612;28;20074;-82
2024/02/20 04:05:04;;;;;;;5.95;2.17;;;;;;;4.00;100.00;93959.97;2099648;27;20848;-82
2024/02/20 04:06:08;;;;;;;7.93;2.80;;;;;;;4.02;100.00;93962.25;2106770;28;20090;-82
2024/02/20 04:07:10;;;;;;;7.65;2.58;;;;;;;3.99;100.00;93971.66;2107027;27;20021;-83
2024/02/20 04:08:12;;;;;;;8.02;2.42;;;;;;;3.94;100.00;93969.31;2114691;28;20055;-82
2024/02/20 04:09:13;;;;;;;5.82;2.47;;;;;;;4.12;100.00;93968.84;2101847;27;20020;-83
2024/02/20 04:10:19;;;;;;;8.93;2.83;;;;;;;4.24;100.00;93968.66;2105362;28;20028;-83
2024/02/20 04:11:20;;;;;;;10.65;2.63;;;;;;;4.17;100.00;93976.47;2100630;27;20048;-82
2024/02/20 04:12:20;;;;;;;7.07;2.10;;;;;;;4.12;100.00;93966.94;2106316;28;20385;-82
2024/02/20 04:13:22;;;;;;;8.98;2.75;;;;;;;3.84;100.00;93974.41;2105052;28;20020;-83
2024/02/20 04:14:22;;;;;;;5.68;2.40;;;;;;;3.91;100.00;93969.28;2106464;28;20386;-83
2024/02/20 04:15:23;;;;;;;6.68;2.90;;;;;;;3.89;100.00;93971.47;2112444;28;20034;-82
2024/02/20 04:16:25;;;;;;;8.43;2.45;;;;;;;3.90;100.00;93980.94;2114841;28;20019;-83
2024/02/20 04:17:26;;;;;;;7.78;2.33;;;;;;;3.97;100.00;93976.53;2106575;28;20020;-83
2024/02/20 04:18:26;;;;;;;7.88;2.85;;;;;;;4.21;100.00;93975.41;2123402;27;20023;-82
2024/02/20 04:19:27;;;;;;;5.78;2.30;;;;;;;4.13;100.00;93973.78;2114859;28;20388;-83
2024/02/20 04:20:28;;;;;;;5.88;2.38;;;;;;;4.10;100.00;93973.72;2106477;28;20032;-84
2024/02/20 04:21:29;;;;;;;9.27;2.60;;;;;;;4.09;100.00;93978.25;2114894;28;20117;-83
2024/02/20 04:22:31;;;;;;;6.25;2.00;;;;;;;4.20;100.00;93984.47;2114907;28;20047;-83
2024/02/20 04:23:31;;;;;;;7.65;2.60;;;;;;;4.22;100.00;93984.91;2098126;28;20105;-84
2024/02/20 04:24:32;;;;;;;6.85;2.58;;;;;;;4.00;100.00;93983.03;2106462;28;20427;-82
2024/02/20 04:25:34;;;;;;;5.80;2.30;;;;;;;4.03;100.00;93985.72;2103169;28;20054;-83
2024/02/20 04:26:35;;;;;;;9.38;2.83;;;;;;;4.03;100.00;93983.06;2097947;28;20521;-82
2024/02/20 04:27:38;;;;;;;11.43;3.10;;;;;;;4.18;100.00;93981.44;2098073;28;20036;-82
2024/02/20 04:28:39;;;;;;;5.95;2.67;;;;;;;4.07;100.00;93980.47;2090186;28;20028;-83
2024/02/20 04:29:40;;;;;;;11.63;2.97;;;;;;;4.06;100.00;93992.19;2098074;28;20075;-83
2024/02/20 04:30:44;;;;;;;10.95;2.63;;;;;;;4.02;100.00;93994.75;2098072;28;20033;-84
2024/02/20 04:31:45;;;;;;;10.88;2.63;;;;;;;4.03;100.00;93984.94;2090805;28;20029;-82
2024/02/20 04:32:47;;;;;;;8.70;3.22;;;;;;;4.10;100.00;93993.00;2089739;28;20017;-83
2024/02/20 04:33:48;;;;;;;9.00;2.60;;;;;;;4.03;100.00;93993.63;2105512;28;20036;-81
2024/02/20 04:34:49;;;;;;;10.02;3.00;;;;;;;3.94;100.00;93989.69;2097767;28;20343;-79
2024/02/20 04:35:50;;;;;;;10.88;3.08;;;;;;;3.95;100.00;93992.00;2084551;28;20029;-81
2024/02/20 04:36:51;;;;;;;9.80;2.70;;;;;;;4.11;100.00;93999.81;2097667;28;20046;-81
2024/02/20 04:37:51;;;;;;;5.68;2.70;;;;;;;4.08;100.00;94002.41;2097793;28;20078;-81
2024/02/20 04:38:56;;;;;;;8.13;2.30;;;;;;;3.88;100.00;93997.16;2089647;28;20166;-81
2024/02/20 04:39:57;;;;;;;6.72;2.53;;;;;;;4.08;100.00;93999.75;2090124;28;20485;-81
2024/02/20 04:40:59;;;;;;;10.85;2.80;;;;;;;3.99;100.00;94006.03;2092035;28;20032;-83
2024/02/20 04:42:00;;;;;;;7.38;2.83;;;;;;;4.06;100.00;94004.66;2097689;28;20059;-81
2024/02/20 04:43:01;;;;;;;14.35;2.90;;;;;;;3.88;100.00;94012.28;2086115;28;20129;-80
2024/02/20 04:44:02;;;;;;;9.98;2.80;;;;;;;3.95;100.00;94015.03;2089547;28;20052;-82
2024/02/20 04:45:05;;;;;;;7.95;3.03;;;;;;;3.90;100.00;94010.78;2097883;28;20024;-81
2024/02/20 04:46:05;;;;;;;11.45;3.15;;;;;;;3.90;100.00;94007.38;2106316;28;20043;-83
2024/02/20 04:47:07;;;;;;;8.52;2.50;;;;;;;3.89;100.00;94017.19;2105944;28;20547;-81
2024/02/20 04:48:08;;;;;;;10.20;2.75;;;;;;;3.84;100.00;94014.84;2089674;28;20024;-82
2024/02/20 04:49:09;;;;;;;11.07;3.17;;;;;;;4.19;100.00;94008.66;2089248;28;20056;-82
2024/02/20 04:50:10;;;;;;;9.57;2.60;;;;;;;4.12;100.00;94009.28;2097557;28;20043;-82
2024/02/20 04:51:11;;;;;;;11.77;3.05;;;;;;;3.94;100.00;94008.22;2097800;28;20028;-83